Airfield :
LOGIN :

Register | Disclaimer

   EN    FR    IT 

 










Legend :    VFR   Marginal VFR   IFR   Intensive IFR   Very Intensive IFR
Visi :
Ceiling :
>= 8 km
>= 3000ft
5 to 8 km
1000 to 3000 ft
1500m to 5 km
500 to 1000 ft
800 to 1500m
200 to 500 ft
< 800m
< 200 ft
Symbols :   Thunderstorms  Fog  Heavy snow  Heavy precipitations  Wind > 20 kt
SIGMETs :     Misc.  Thunderstorms  Icing  Turbulence  Mountain Waves  Volcanic Ashes






- Airport Elevation : 63 ft
- IATA code : BZM


EHWO - Woensdrecht Airbase

CURRENT METAR :
  • 261455Z AUTO 22012KT 170V250 9999 SCT026 BKN033 BKN037 13/07 Q0999 BLU

EXPIRED METARs :
  • 261425Z AUTO 22012KT 190V260 9999 SCT029 BKN032 BKN037 13/07 Q0999 BLU
  • 261417Z AUTO 22012KT 190V260 9999 SCT028 BKN031 BKN037 13/07 Q0999 BLU
  • 261355Z AUTO 22011KT 190V270 9999 FEW026 BKN030 BKN034 13/07 Q0999 BLU NOSIG
  • 261325Z AUTO 23011KT 190V260 9999 BKN027 BKN035 BKN043 13/07 Q0999 BLU NOSIG
  • 261255Z AUTO 22013G23KT 180V260 9999 FEW027 BKN031 BKN035 14/07 Q0999 BLU NOSIG
  • 261231Z AUTO 22013G24KT 180V270 9999 FEW029 SCT033 BKN038 12/07 Q0999 BLU NOSIG
  • 261213Z AUTO 22012KT 200V260 9999 FEW022 BKN028 BKN033 12/07 Q0999 BLU

TAF TAF EHWO
Valid from the 26 at 10:00 until the 26 at 22:00 UTC


260951Z 2610/2622 21012KT 9999 SCT016 BKN020
TEMPO 2610/2615 21014G25KT
BECMG 2610/2612 FEW017 SCT020
PROB40
TEMPO 2614/2618 4500 -SHRA FEW015 SCT018CB BKN022



MET'MAP, your aeronautical weather chart ! - Copyright ORBIFLY December 2007 - Disclaimer

ORBIFLY MET'MAP TEAM :

Programming & Development : Alexandra Zaïnal
Concept & original design : Baudouin d'Aumeries
Assistance for programming : Marc-Olivier Méhu
Technical & hardware support : Manuel Goepfert

Contact : metmap@orbifly.com




SOURCES & CREDITS :

   NOAA